Time;durP1;ratioP1;P1;durP2;ratioP2;P2;SDS_P1;SDS_P2;PMS_P1;PMS_P2;Temp;Humidity;BMP_temperature;BMP_pressure;BME280_temperature;BME280_humidity;BME280_pressure;Samples;Min_cycle;Max_cycle;Signal;HPM_P1;HPM_P2
2023/04/20 00:00:11;;;;;;;5.83;4.73;;;9.20;87.30;;;;;;5115007;28;20458;-74
2023/04/20 00:02:42;;;;;;;7.10;3.80;;;9.20;87.20;;;;;;5115094;28;20478;-74
2023/04/20 00:05:12;;;;;;;6.37;4.63;;;9.10;87.30;;;;;;5114879;28;20922;-73
2023/04/20 00:07:40;;;;;;;5.83;4.37;;;9.10;87.50;;;;;;5096513;28;20451;-74
2023/04/20 00:10:09;;;;;;;5.73;3.70;;;9.10;87.60;;;;;;5114689;28;20523;-74
2023/04/20 00:12:37;;;;;;;7.37;4.23;;;9.10;87.70;;;;;;5096299;28;20499;-74
2023/04/20 00:15:07;;;;;;;6.17;3.97;;;9.00;87.70;;;;;;5096348;28;20454;-73
2023/04/20 00:17:35;;;;;;;6.73;3.70;;;9.00;87.90;;;;;;5096409;28;20978;-74
2023/04/20 00:20:04;;;;;;;7.47;4.20;;;9.00;87.90;;;;;;5096344;28;20973;-73
2023/04/20 00:22:34;;;;;;;5.00;3.60;;;9.00;88.00;;;;;;5096152;28;20467;-74
2023/04/20 00:25:03;;;;;;;6.10;3.83;;;9.00;88.30;;;;;;5114528;28;20469;-74
2023/04/20 00:27:31;;;;;;;5.60;4.13;;;9.00;89.20;;;;;;5096119;28;20431;-74
2023/04/20 00:29:59;;;;;;;5.80;4.10;;;8.90;90.10;;;;;;5096122;28;20447;-74
2023/04/20 00:32:29;;;;;;;6.93;4.30;;;8.90;90.10;;;;;;5095995;28;20975;-74
2023/04/20 00:34:57;;;;;;;7.20;4.40;;;8.90;90.30;;;;;;5114350;28;20427;-74
2023/04/20 00:37:25;;;;;;;5.67;4.13;;;8.80;90.40;;;;;;5095813;28;20467;-74
2023/04/20 00:39:57;;;;;;;5.63;4.03;;;8.80;90.70;;;;;;5114342;28;20443;-74
2023/04/20 00:42:25;;;;;;;6.30;4.60;;;8.70;91.10;;;;;;5095834;28;20475;-74
2023/04/20 00:44:53;;;;;;;5.53;4.23;;;8.70;91.00;;;;;;5095811;28;20443;-74
2023/04/20 00:47:22;;;;;;;5.30;4.23;;;8.70;91.20;;;;;;5095739;28;20440;-73
2023/04/20 00:49:51;;;;;;;5.70;4.47;;;8.60;91.40;;;;;;5095873;28;20479;-74
2023/04/20 00:52:20;;;;;;;7.33;4.90;;;8.60;91.70;;;;;;5095600;28;20475;-74
2023/04/20 00:54:49;;;;;;;5.20;4.03;;;8.50;92.10;;;;;;5113487;28;20427;-74
2023/04/20 00:57:22;;;;;;;6.70;4.30;;;8.50;92.10;;;;;;5113643;28;20463;-74
2023/04/20 00:59:51;;;;;;;6.80;4.43;;;8.40;92.30;;;;;;5095445;28;20450;-74
2023/04/20 01:02:22;;;;;;;6.53;4.33;;;8.40;92.60;;;;;;5096194;28;20486;-74
2023/04/20 01:04:50;;;;;;;6.17;4.73;;;8.40;92.80;;;;;;5095474;28;20435;-74
2023/04/20 01:07:18;;;;;;;6.53;4.10;;;8.30;92.90;;;;;;5112289;28;21007;-74
2023/04/20 01:09:49;;;;;;;7.27;4.60;;;8.30;93.20;;;;;;5112307;28;20434;-74
2023/04/20 01:12:18;;;;;;;4.97;4.03;;;8.30;93.30;;;;;;5095225;28;20490;-74
2023/04/20 01:14:47;;;;;;;5.83;4.60;;;8.20;93.40;;;;;;5095295;28;20440;-74
2023/04/20 01:17:16;;;;;;;5.63;4.80;;;8.20;93.60;;;;;;5095143;28;20890;-74
2023/04/20 01:19:46;;;;;;;6.33;4.37;;;8.20;93.70;;;;;;5095268;28;20474;-74
2023/04/20 01:22:17;;;;;;;6.97;5.00;;;8.10;93.80;;;;;;5113306;28;20456;-74
2023/04/20 01:24:45;;;;;;;6.00;4.70;;;8.20;93.90;;;;;;5095257;28;20447;-74
2023/04/20 01:27:15;;;;;;;5.50;4.70;;;8.10;94.00;;;;;;5113332;28;20431;-74
2023/04/20 01:29:43;;;;;;;6.33;4.60;;;8.10;94.10;;;;;;5095119;28;20934;-74
2023/04/20 01:32:12;;;;;;;6.57;4.77;;;8.10;94.20;;;;;;5113186;28;20464;-74
2023/04/20 01:34:41;;;;;;;5.27;3.90;;;8.10;94.30;;;;;;5094968;28;20446;-74
2023/04/20 01:37:09;;;;;;;5.97;4.53;;;8.10;94.40;;;;;;5094807;28;20840;-74
2023/04/20 01:39:42;;;;;;;5.43;4.00;;;8.00;94.40;;;;;;5095027;28;20443;-74
2023/04/20 01:42:10;;;;;;;8.93;4.83;;;8.00;94.50;;;;;;5113222;28;20485;-74
2023/04/20 01:44:39;;;;;;;6.67;4.60;;;8.00;94.50;;;;;;5094902;28;20431;-74
2023/04/20 01:47:07;;;;;;;6.17;3.93;;;8.10;94.60;;;;;;5094986;28;20439;-74
2023/04/20 01:49:35;;;;;;;5.60;4.07;;;8.00;94.60;;;;;;5094774;28;20891;-74
2023/04/20 01:52:04;;;;;;;7.63;4.43;;;8.00;94.70;;;;;;5094696;28;20996;-74
2023/04/20 01:54:32;;;;;;;5.73;4.23;;;8.00;94.80;;;;;;5094851;28;20450;-74
2023/04/20 01:57:03;;;;;;;5.53;4.00;;;8.00;94.80;;;;;;5113276;28;20462;-74
2023/04/20 01:59:31;;;;;;;5.83;4.53;;;8.10;94.90;;;;;;5094778;28;20467;-74
2023/04/20 02:02:01;;;;;;;6.10;4.43;;;8.10;95.00;;;;;;5112875;28;20463;-73
2023/04/20 02:04:33;;;;;;;7.30;4.40;;;8.10;95.00;;;;;;5113086;28;20507;-73
2023/04/20 02:07:01;;;;;;;4.87;3.77;;;8.10;95.10;;;;;;5096260;28;20441;-74
2023/04/20 02:09:29;;;;;;;6.83;4.40;;;8.10;95.20;;;;;;5098810;28;20491;-74
2023/04/20 02:11:57;;;;;;;6.70;4.30;;;8.00;95.30;;;;;;5098772;28;20530;-74
2023/04/20 02:14:26;;;;;;;6.40;4.27;;;8.00;95.30;;;;;;5098731;28;20514;-74
2023/04/20 02:16:55;;;;;;;6.00;4.27;;;8.10;95.40;;;;;;5098560;28;20502;-74
2023/04/20 02:19:23;;;;;;;5.90;3.90;;;8.00;95.50;;;;;;5117093;28;20427;-74
2023/04/20 02:21:51;;;;;;;5.13;4.03;;;8.00;95.90;;;;;;5098490;28;20443;-75
2023/04/20 02:24:20;;;;;;;6.30;4.50;;;8.00;95.70;;;;;;5098681;28;20439;-73
2023/04/20 02:26:48;;;;;;;5.93;4.10;;;8.00;95.80;;;;;;5116965;28;20435;-74
2023/04/20 02:29:16;;;;;;;7.00;4.50;;;8.00;95.80;;;;;;5101487;28;20486;-73
2023/04/20 02:31:46;;;;;;;6.43;4.73;;;8.00;95.90;;;;;;5101859;28;20458;-74
2023/04/20 02:34:16;;;;;;;6.30;4.07;;;8.00;96.30;;;;;;5100002;28;20852;-73
2023/04/20 02:36:44;;;;;;;6.47;4.50;;;8.00;96.10;;;;;;5101572;28;20481;-73
2023/04/20 02:39:13;;;;;;;6.73;3.77;;;8.00;96.10;;;;;;5120178;28;20502;-75
2023/04/20 02:41:41;;;;;;;6.47;3.90;;;7.90;96.00;;;;;;5101863;28;20443;-75
2023/04/20 02:44:09;;;;;;;8.77;4.07;;;7.90;96.00;;;;;;5101814;28;20484;-74
2023/04/20 02:46:37;;;;;;;10.57;4.63;;;7.90;96.10;;;;;;5101786;28;20812;-74
2023/04/20 02:49:07;;;;;;;7.60;4.10;;;7.90;96.10;;;;;;5100535;28;20443;-74
2023/04/20 02:51:40;;;;;;;5.40;3.80;;;7.90;96.20;;;;;;5116683;28;20419;-74
2023/04/20 02:54:08;;;;;;;6.80;3.70;;;7.90;96.30;;;;;;5098605;28;20529;-74
2023/04/20 02:56:36;;;;;;;7.27;4.10;;;7.90;96.40;;;;;;5099276;28;20497;-74
2023/04/20 02:59:08;;;;;;;5.10;3.97;;;7.80;96.40;;;;;;5098820;28;20439;-74
2023/04/20 03:02:03;;;;;;;5.63;4.30;;;7.80;96.80;;;;;;5099916;28;20470;-74
2023/04/20 03:04:33;;;;;;;7.23;4.10;;;7.80;96.60;;;;;;5097786;28;20447;-74
2023/04/20 03:07:17;;;;;;;7.27;4.10;;;7.80;96.60;;;;;;5098014;28;20538;-75
2023/04/20 03:09:47;;;;;;;6.40;4.00;;;7.80;97.00;;;;;;5097771;28;20443;-75
2023/04/20 03:12:18;;;;;;;5.87;4.40;;;7.80;96.80;;;;;;5116310;28;20466;-74
2023/04/20 03:15:01;;;;;;;5.97;4.20;;;7.80;96.80;;;;;;5097610;28;20439;-74
2023/04/20 03:17:45;;;;;;;6.93;4.20;;;7.80;96.90;;;;;;5097696;28;20470;-74
2023/04/20 03:20:16;;;;;;;7.07;4.70;;;7.70;96.90;;;;;;5097454;28;20964;-74
2023/04/20 03:22:44;;;;;;;7.60;5.27;;;7.70;97.00;;;;;;5097378;28;20490;-74
2023/04/20 03:25:13;;;;;;;6.47;4.00;;;7.70;97.10;;;;;;5097506;28;20546;-74
2023/04/20 03:28:07;;;;;;;6.57;4.20;;;7.70;97.20;;;;;;5113355;28;20435;-74
2023/04/20 03:30:36;;;;;;;7.23;3.73;;;7.80;97.20;;;;;;5098091;28;20471;-74
2023/04/20 03:33:13;;;;;;;5.93;4.43;;;7.70;97.20;;;;;;5097103;28;20576;-73
2023/04/20 03:35:43;;;;;;;7.27;3.77;;;7.70;97.30;;;;;;5097151;28;20448;-74
2023/04/20 03:38:11;;;;;;;7.00;4.53;;;7.70;97.40;;;;;;5097042;28;20486;-74
2023/04/20 03:40:39;;;;;;;8.03;4.93;;;7.70;97.50;;;;;;5097070;28;20443;-74
2023/04/20 03:43:07;;;;;;;7.47;4.27;;;7.70;97.50;;;;;;5097032;28;20459;-74
2023/04/20 03:45:35;;;;;;;7.50;4.77;;;7.70;97.70;;;;;;5096932;28;20439;-74
2023/04/20 03:48:04;;;;;;;7.83;4.60;;;7.70;97.80;;;;;;5096904;28;20478;-74
2023/04/20 03:50:32;;;;;;;6.73;4.50;;;7.70;97.90;;;;;;5097378;28;20875;-74
2023/04/20 03:53:02;;;;;;;7.53;4.43;;;7.70;98.00;;;;;;5096765;28;20933;-74
2023/04/20 03:55:31;;;;;;;10.20;4.53;;;7.60;98.10;;;;;;5097013;28;20445;-74
2023/04/20 03:58:05;;;;;;;7.00;4.77;;;7.60;98.20;;;;;;5097500;28;20869;-74
2023/04/20 04:00:45;;;;;;;7.03;5.20;;;7.60;98.30;;;;;;5096896;28;20872;-74
2023/04/20 04:03:14;;;;;;;8.40;4.93;;;7.60;98.30;;;;;;5096597;28;20471;-74
2023/04/20 04:05:43;;;;;;;6.97;4.57;;;7.60;98.40;;;;;;5096621;28;20450;-74
2023/04/20 04:08:12;;;;;;;7.63;4.43;;;7.60;98.50;;;;;;5114888;28;20462;-74
2023/04/20 04:10:40;;;;;;;8.20;5.07;;;7.60;98.60;;;;;;5113438;28;20443;-74
2023/04/20 04:13:09;;;;;;;6.50;4.80;;;7.60;98.70;;;;;;5096348;28;20834;-74
2023/04/20 04:15:37;;;;;;;7.57;4.33;;;7.60;98.90;;;;;;5096254;28;20961;-74
2023/04/20 04:18:10;;;;;;;9.23;5.00;;;7.50;99.00;;;;;;5096156;28;20467;-74
2023/04/20 04:20:40;;;;;;;8.13;4.47;;;7.50;99.10;;;;;;5096200;28;20532;-74
2023/04/20 04:23:12;;;;;;;7.80;5.10;;;7.50;99.20;;;;;;5096252;28;20471;-74
2023/04/20 04:25:50;;;;;;;6.87;5.00;;;7.50;99.40;;;;;;5096123;28;20442;-75
2023/04/20 04:28:23;;;;;;;7.67;6.03;;;7.50;99.80;;;;;;5096205;28;20451;-75
2023/04/20 04:31:11;;;;;;;7.53;5.00;;;7.50;99.70;;;;;;5113695;28;20442;-75
2023/04/20 04:33:40;;;;;;;7.97;5.60;;;7.40;99.80;;;;;;5096032;28;20466;-75
2023/04/20 04:36:11;;;;;;;9.83;4.80;;;7.40;99.90;;;;;;5096758;28;20443;-75
2023/04/20 04:38:41;;;;;;;8.53;5.53;;;7.40;99.90;;;;;;5095892;28;20588;-75
2023/04/20 04:41:10;;;;;;;6.83;5.10;;;7.40;99.90;;;;;;5096003;28;20436;-75
2023/04/20 04:43:41;;;;;;;10.10;5.97;;;7.40;99.90;;;;;;5096281;28;20475;-75
2023/04/20 04:46:19;;;;;;;10.40;5.70;;;7.30;99.90;;;;;;5096230;28;21012;-75
2023/04/20 04:48:48;;;;;;;8.47;5.97;;;7.30;99.90;;;;;;5095756;28;20445;-75
2023/04/20 04:51:18;;;;;;;9.20;6.33;;;7.30;99.90;;;;;;5095866;28;20440;-75
2023/04/20 04:53:48;;;;;;;10.80;5.20;;;7.30;99.90;;;;;;5096046;28;20993;-75
2023/04/20 04:56:17;;;;;;;10.00;6.10;;;7.30;99.90;;;;;;5095619;28;20524;-75
2023/04/20 04:58:45;;;;;;;11.13;7.47;;;7.30;99.90;;;;;;5114393;28;21057;-75
2023/04/20 05:01:14;;;;;;;7.97;5.30;;;7.30;99.90;;;;;;5095661;28;20451;-75
2023/04/20 05:03:42;;;;;;;10.80;5.90;;;7.30;99.90;;;;;;5113741;28;20466;-75
2023/04/20 05:06:10;;;;;;;9.63;6.10;;;7.30;99.90;;;;;;5113787;28;20461;-75
2023/04/20 05:08:38;;;;;;;8.43;5.80;;;7.30;99.90;;;;;;5096446;28;20813;-75
2023/04/20 05:11:08;;;;;;;8.20;5.63;;;7.30;99.90;;;;;;5113646;28;20434;-75
2023/04/20 05:13:36;;;;;;;8.67;5.43;;;7.30;99.90;;;;;;5095330;28;20478;-75
2023/04/20 05:16:05;;;;;;;9.83;6.13;;;7.30;99.90;;;;;;5095333;28;20434;-75
2023/04/20 05:18:33;;;;;;;6.90;5.17;;;7.30;99.90;;;;;;5095713;28;20487;-75
2023/04/20 05:21:02;;;;;;;9.17;5.70;;;7.30;99.90;;;;;;5095306;28;20447;-75
2023/04/20 05:23:30;;;;;;;8.13;5.70;;;7.30;99.90;;;;;;5113426;28;20458;-75
2023/04/20 05:25:58;;;;;;;8.70;5.70;;;7.30;99.90;;;;;;5095280;28;20458;-75
2023/04/20 05:28:27;;;;;;;7.20;5.90;;;7.30;99.90;;;;;;5113383;28;20476;-75
2023/04/20 05:30:55;;;;;;;10.83;6.10;;;7.30;99.90;;;;;;5115063;28;20922;-75
2023/04/20 05:33:24;;;;;;;7.40;6.23;;;7.30;99.90;;;;;;5117176;28;20458;-75
2023/04/20 05:35:56;;;;;;;8.40;6.20;;;7.30;99.90;;;;;;5116020;28;20442;-75
2023/04/20 05:38:25;;;;;;;7.23;5.70;;;7.30;99.90;;;;;;5095165;28;20459;-75
2023/04/20 05:40:53;;;;;;;7.70;5.20;;;7.20;99.90;;;;;;5094925;28;20454;-75
2023/04/20 05:43:21;;;;;;;10.93;6.57;;;7.20;99.90;;;;;;5095032;28;20463;-75
2023/04/20 05:45:50;;;;;;;9.13;5.23;;;7.20;99.90;;;;;;5113220;28;20434;-75
2023/04/20 05:48:19;;;;;;;8.20;6.20;;;7.20;99.90;;;;;;5094972;28;20446;-75
2023/04/20 05:50:47;;;;;;;8.87;5.83;;;7.20;99.90;;;;;;5095038;28;20450;-74
2023/04/20 05:53:15;;;;;;;8.40;6.37;;;7.20;99.90;;;;;;5095005;28;20462;-74
2023/04/20 05:55:43;;;;;;;8.63;6.47;;;7.20;99.90;;;;;;5095169;28;20845;-74
2023/04/20 05:58:11;;;;;;;8.90;6.33;;;7.20;99.90;;;;;;5094943;28;20461;-74
2023/04/20 06:00:40;;;;;;;9.77;6.27;;;7.30;99.90;;;;;;5094862;28;20786;-74
2023/04/20 06:03:09;;;;;;;9.57;6.60;;;7.30;99.90;;;;;;5113331;28;20486;-75
2023/04/20 06:05:38;;;;;;;10.17;6.63;;;7.30;99.90;;;;;;5094894;28;20472;-75
2023/04/20 06:08:06;;;;;;;9.93;6.00;;;7.30;99.90;;;;;;5094919;28;20504;-75
2023/04/20 06:10:34;;;;;;;7.83;6.10;;;7.30;99.90;;;;;;5113299;28;20943;-75
2023/04/20 06:13:02;;;;;;;9.07;6.60;;;7.30;99.90;;;;;;5112957;28;20466;-74
2023/04/20 06:15:31;;;;;;;9.97;6.40;;;7.30;99.90;;;;;;5094790;28;20654;-74
2023/04/20 06:18:00;;;;;;;9.70;6.50;;;7.30;99.90;;;;;;5112962;28;20460;-74
2023/04/20 06:20:30;;;;;;;10.63;6.60;;;7.30;99.90;;;;;;5094689;28;20857;-74
2023/04/20 06:22:58;;;;;;;11.43;6.90;;;7.30;99.90;;;;;;5112822;28;20464;-74
2023/04/20 06:25:26;;;;;;;8.10;6.77;;;7.30;99.90;;;;;;5113089;28;20494;-74
2023/04/20 06:27:54;;;;;;;8.50;6.40;;;7.30;99.90;;;;;;5094467;28;20439;-74
2023/04/20 06:30:22;;;;;;;10.60;6.67;;;7.40;99.90;;;;;;5094657;28;20454;-74
2023/04/20 06:32:51;;;;;;;8.97;7.70;;;7.40;99.90;;;;;;5094799;28;20831;-75
2023/04/20 06:35:19;;;;;;;10.50;7.30;;;7.40;99.90;;;;;;5094573;28;20448;-74
2023/04/20 06:37:48;;;;;;;10.60;7.20;;;7.40;99.90;;;;;;5113191;28;20870;-74
2023/04/20 06:40:17;;;;;;;9.40;6.93;;;7.40;99.90;;;;;;5094539;28;20481;-75
2023/04/20 06:42:45;;;;;;;9.73;7.33;;;7.40;99.90;;;;;;5094511;28;20470;-74
2023/04/20 06:45:14;;;;;;;8.47;6.20;;;7.40;99.90;;;;;;5094430;28;20458;-74
2023/04/20 06:47:44;;;;;;;8.70;7.00;;;7.40;99.90;;;;;;5094554;28;20450;-74
2023/04/20 06:50:12;;;;;;;9.53;7.77;;;7.50;99.90;;;;;;5094387;28;20541;-74
2023/04/20 06:52:41;;;;;;;10.37;8.40;;;7.50;99.90;;;;;;5095175;28;20483;-74
2023/04/20 06:55:10;;;;;;;10.70;7.83;;;7.50;99.90;;;;;;5116302;28;20430;-74
2023/04/20 06:57:39;;;;;;;10.93;8.27;;;7.50;99.90;;;;;;5098022;28;20962;-74
2023/04/20 07:00:08;;;;;;;12.30;8.63;;;7.50;99.90;;;;;;5097816;28;20474;-74
2023/04/20 07:02:44;;;;;;;10.77;8.33;;;7.50;99.90;;;;;;5098167;28;20463;-74
2023/04/20 07:05:13;;;;;;;10.40;8.50;;;7.50;99.90;;;;;;5116694;28;20420;-74
2023/04/20 07:07:42;;;;;;;12.10;8.80;;;7.50;99.90;;;;;;5116332;28;20529;-74
2023/04/20 07:10:13;;;;;;;13.80;8.90;;;7.60;99.90;;;;;;5097903;28;20547;-74
2023/04/20 07:12:41;;;;;;;13.17;9.67;;;7.60;99.90;;;;;;5097760;28;20471;-74
2023/04/20 07:15:12;;;;;;;11.13;8.57;;;7.60;99.90;;;;;;5098814;28;20456;-74
2023/04/20 07:17:40;;;;;;;14.30;9.20;;;7.70;99.90;;;;;;5098229;28;20447;-74
2023/04/20 07:20:09;;;;;;;12.30;9.00;;;7.70;99.90;;;;;;5097660;28;20462;-74
2023/04/20 07:22:39;;;;;;;13.00;9.70;;;7.80;99.90;;;;;;5097493;28;20462;-74
2023/04/20 07:25:08;;;;;;;10.47;9.37;;;7.80;99.90;;;;;;5115716;28;20439;-74
2023/04/20 07:27:40;;;;;;;12.70;9.70;;;7.80;99.90;;;;;;5097360;28;20446;-74
2023/04/20 07:30:10;;;;;;;11.70;9.93;;;7.80;99.90;;;;;;5097352;28;20443;-74
2023/04/20 07:32:39;;;;;;;10.80;9.53;;;7.80;99.90;;;;;;5115551;28;20451;-74
2023/04/20 07:35:08;;;;;;;11.33;9.67;;;7.80;99.90;;;;;;5115804;28;20799;-74
2023/04/20 07:37:36;;;;;;;13.23;9.93;;;7.80;99.90;;;;;;5097218;28;20765;-74
2023/04/20 07:40:05;;;;;;;11.17;10.03;;;7.80;99.90;;;;;;5097252;28;20998;-74
2023/04/20 07:42:35;;;;;;;13.20;9.90;;;7.90;99.90;;;;;;5097047;28;20463;-74
2023/04/20 07:45:06;;;;;;;13.37;10.77;;;7.90;99.90;;;;;;5115310;28;20494;-74
2023/04/20 07:47:35;;;;;;;13.30;11.17;;;7.90;99.90;;;;;;5097125;28;20443;-74
2023/04/20 07:50:04;;;;;;;12.10;10.57;;;7.90;99.90;;;;;;5115252;28;20841;-74
2023/04/20 07:52:32;;;;;;;14.77;11.00;;;7.90;99.90;;;;;;5115069;28;20980;-74
2023/04/20 07:55:01;;;;;;;12.30;11.00;;;7.90;99.90;;;;;;5113866;28;20444;-74
2023/04/20 07:57:29;;;;;;;12.93;11.47;;;7.90;99.90;;;;;;5096851;28;20834;-74
2023/04/20 07:59:57;;;;;;;11.87;10.63;;;7.90;99.90;;;;;;5096655;28;20463;-74
2023/04/20 08:02:27;;;;;;;11.93;10.30;;;8.00;99.90;;;;;;5096574;28;20470;-74
2023/04/20 08:04:56;;;;;;;16.30;11.67;;;8.00;99.90;;;;;;5113715;28;20515;-74
2023/04/20 08:07:24;;;;;;;11.63;10.43;;;8.00;99.90;;;;;;5115035;28;20488;-74
2023/04/20 08:09:52;;;;;;;13.57;11.40;;;8.00;99.90;;;;;;5114853;28;20815;-74
2023/04/20 08:12:20;;;;;;;13.30;12.00;;;8.00;99.90;;;;;;5114874;28;20451;-74
2023/04/20 08:14:48;;;;;;;13.13;11.37;;;8.00;99.90;;;;;;5096429;28;20447;-74
2023/04/20 08:17:16;;;;;;;14.57;11.80;;;8.00;99.90;;;;;;5096442;28;20447;-74
2023/04/20 08:19:46;;;;;;;13.20;11.10;;;8.00;99.90;;;;;;5114618;28;20828;-74
2023/04/20 08:22:14;;;;;;;11.33;10.20;;;8.00;99.90;;;;;;5114554;28;20451;-74
2023/04/20 08:24:43;;;;;;;11.43;10.20;;;8.00;99.90;;;;;;5096246;28;20970;-74
2023/04/20 08:27:11;;;;;;;15.33;11.10;;;8.00;99.90;;;;;;5096135;28;20471;-74
2023/04/20 08:29:40;;;;;;;11.43;10.20;;;8.00;99.90;;;;;;5114938;28;20441;-74
2023/04/20 08:32:10;;;;;;;13.30;11.17;;;8.00;99.90;;;;;;5095939;28;20989;-74
2023/04/20 08:34:39;;;;;;;12.97;10.73;;;8.00;99.90;;;;;;5096376;28;20454;-74
2023/04/20 08:37:09;;;;;;;13.90;10.73;;;8.00;99.90;;;;;;5114798;28;21028;-74
2023/04/20 08:39:37;;;;;;;12.50;10.53;;;8.00;99.90;;;;;;5114448;28;20847;-74
2023/04/20 08:42:06;;;;;;;13.20;11.20;;;8.00;99.90;;;;;;5112865;28;20467;-74
2023/04/20 08:44:34;;;;;;;13.43;10.10;;;8.00;99.90;;;;;;5095973;28;20527;-74
2023/04/20 08:47:03;;;;;;;12.60;10.30;;;8.10;99.90;;;;;;5095843;28;20450;-74
2023/04/20 08:49:31;;;;;;;13.93;10.63;;;8.10;99.90;;;;;;5114140;28;21002;-75
2023/04/20 08:51:59;;;;;;;11.40;9.83;;;8.10;99.90;;;;;;5095771;28;20482;-74
2023/04/20 08:54:29;;;;;;;11.50;10.37;;;8.10;99.90;;;;;;5095690;28;20443;-75
2023/04/20 08:56:58;;;;;;;11.20;10.00;;;8.20;99.90;;;;;;5113896;28;20431;-74
2023/04/20 08:59:26;;;;;;;11.80;9.67;;;8.20;99.90;;;;;;5095621;28;20455;-75
2023/04/20 09:01:54;;;;;;;12.03;9.73;;;8.20;99.90;;;;;;5095505;28;20455;-75
2023/04/20 09:04:25;;;;;;;14.50;10.07;;;8.20;99.90;;;;;;5113852;28;20505;-75
2023/04/20 09:06:56;;;;;;;11.20;9.67;;;8.30;99.90;;;;;;5113797;28;20494;-75
2023/04/20 09:09:25;;;;;;;16.10;10.40;;;8.30;99.90;;;;;;5113986;28;20447;-75
2023/04/20 09:12:02;;;;;;;13.10;9.17;;;8.30;99.90;;;;;;5113741;28;20423;-75
2023/04/20 09:14:41;;;;;;;10.97;9.80;;;8.30;99.90;;;;;;5113920;28;20913;-75
2023/04/20 09:17:13;;;;;;;13.47;10.03;;;8.30;99.90;;;;;;5113314;28;20422;-74
2023/04/20 09:19:44;;;;;;;10.00;9.00;;;8.40;99.90;;;;;;5113672;28;20426;-74
2023/04/20 09:22:12;;;;;;;9.77;8.77;;;8.30;99.90;;;;;;5113637;28;20957;-75
2023/04/20 09:24:41;;;;;;;13.50;9.80;;;8.40;99.90;;;;;;5095273;28;20956;-74
2023/04/20 09:27:18;;;;;;;10.57;9.47;;;8.40;99.90;;;;;;5095112;28;20480;-74
2023/04/20 09:29:57;;;;;;;10.40;9.13;;;8.50;99.90;;;;;;5113445;28;20451;-74
2023/04/20 09:32:26;;;;;;;11.47;9.20;;;8.50;99.90;;;;;;5095100;28;20466;-75
2023/04/20 09:34:55;;;;;;;11.37;10.03;;;8.50;99.90;;;;;;5095133;28;20452;-74
2023/04/20 09:37:24;;;;;;;10.63;8.93;;;8.60;99.90;;;;;;5095161;28;20443;-74
2023/04/20 09:39:58;;;;;;;11.77;9.90;;;8.60;99.90;;;;;;5095174;28;20500;-74
2023/04/20 09:42:30;;;;;;;10.20;9.20;;;8.60;99.90;;;;;;5113436;28;20454;-74
2023/04/20 09:44:58;;;;;;;10.70;9.60;;;8.60;99.90;;;;;;5095188;28;20447;-74
2023/04/20 09:47:28;;;;;;;13.73;10.53;;;8.60;99.90;;;;;;5095086;28;20450;-74
2023/04/20 09:49:57;;;;;;;12.57;10.33;;;8.60;99.90;;;;;;5113288;28;20440;-74
2023/04/20 09:52:37;;;;;;;11.50;10.00;;;8.60;99.90;;;;;;5113028;28;20469;-74
2023/04/20 09:55:07;;;;;;;9.90;8.83;;;8.70;99.90;;;;;;5094885;28;20490;-74
2023/04/20 09:57:38;;;;;;;10.93;9.83;;;8.70;99.90;;;;;;5113071;28;20431;-74
2023/04/20 10:00:09;;;;;;;11.63;10.07;;;8.70;99.90;;;;;;5112910;28;20450;-75
2023/04/20 10:02:38;;;;;;;11.60;9.83;;;8.80;99.90;;;;;;5094625;28;20477;-74
2023/04/20 10:05:07;;;;;;;11.60;10.27;;;8.80;99.90;;;;;;5094931;28;20442;-74
2023/04/20 10:07:35;;;;;;;11.23;10.03;;;8.80;99.90;;;;;;5113306;28;20545;-74
2023/04/20 10:10:09;;;;;;;11.33;9.43;;;8.80;99.90;;;;;;5094812;28;20447;-74
2023/04/20 10:12:54;;;;;;;11.30;10.13;;;8.80;99.90;;;;;;5112738;28;20447;-74
2023/04/20 10:15:23;;;;;;;11.30;10.10;;;8.90;99.90;;;;;;5093297;28;20453;-74
2023/04/20 10:17:53;;;;;;;13.47;10.83;;;9.00;99.90;;;;;;5094643;28;20459;-74
2023/04/20 10:20:23;;;;;;;11.90;10.80;;;9.10;99.90;;;;;;5094437;28;20855;-74
2023/04/20 10:22:52;;;;;;;11.40;9.77;;;9.40;99.90;;;;;;5113181;28;20494;-74
2023/04/20 10:25:23;;;;;;;10.17;9.07;;;9.50;99.90;;;;;;5094499;28;20439;-74
2023/04/20 10:28:00;;;;;;;11.20;9.17;;;9.60;99.90;;;;;;5113997;28;20932;-74
2023/04/20 10:30:29;;;;;;;11.80;9.60;;;9.70;99.90;;;;;;5116893;28;20949;-74
2023/04/20 10:33:05;;;;;;;10.60;9.50;;;9.90;99.90;;;;;;5098183;28;20490;-74
2023/04/20 10:35:46;;;;;;;10.27;9.17;;;9.90;99.90;;;;;;5116950;28;20415;-74
2023/04/20 10:38:15;;;;;;;9.37;8.37;;;10.00;99.90;;;;;;5098372;28;20542;-74
2023/04/20 10:40:43;;;;;;;9.87;8.83;;;10.00;99.90;;;;;;5098290;28;20470;-74
2023/04/20 10:43:21;;;;;;;13.47;10.00;;;10.10;99.90;;;;;;5098325;28;20463;-74
2023/04/20 10:45:49;;;;;;;10.60;9.50;;;10.20;99.90;;;;;;5098263;28;20470;-74
2023/04/20 10:48:18;;;;;;;12.13;9.30;;;10.20;99.90;;;;;;5098277;28;20446;-74
2023/04/20 10:50:47;;;;;;;9.23;8.27;;;10.30;99.90;;;;;;5098133;28;20445;-74
2023/04/20 10:53:20;;;;;;;11.30;9.30;;;10.40;99.90;;;;;;5116283;28;20459;-74
2023/04/20 10:55:58;;;;;;;10.20;9.10;;;10.40;99.90;;;;;;5116426;28;20427;-74
2023/04/20 10:58:28;;;;;;;10.03;8.73;;;10.50;99.90;;;;;;5097892;28;20447;-74
2023/04/20 11:01:00;;;;;;;8.80;7.80;;;10.60;99.90;;;;;;5116165;28;20475;-74
2023/04/20 11:03:29;;;;;;;10.60;9.00;;;10.70;99.90;;;;;;5116173;28;20451;-74
2023/04/20 11:06:00;;;;;;;10.30;9.20;;;10.80;99.90;;;;;;5097919;28;20486;-74
2023/04/20 11:08:38;;;;;;;10.37;8.60;;;10.90;99.90;;;;;;5097782;28;20479;-74
2023/04/20 11:11:18;;;;;;;10.03;9.07;;;10.90;99.90;;;;;;5116660;28;20411;-74
2023/04/20 11:13:48;;;;;;;12.40;9.50;;;11.00;99.90;;;;;;5115976;28;20538;-74
2023/04/20 11:16:18;;;;;;;9.80;8.80;;;11.00;99.90;;;;;;5116267;28;20419;-74
2023/04/20 11:18:51;;;;;;;11.73;10.50;;;11.00;99.90;;;;;;5098628;28;21021;-74
2023/04/20 11:21:20;;;;;;;11.37;9.73;;;11.00;99.90;;;;;;5097612;28;20490;-74
2023/04/20 11:23:49;;;;;;;9.87;8.87;;;11.00;99.90;;;;;;5097787;28;20467;-74
2023/04/20 11:26:17;;;;;;;10.70;9.60;;;11.10;99.90;;;;;;5116725;28;20446;-74
2023/04/20 11:28:54;;;;;;;10.23;9.20;;;11.20;99.90;;;;;;5115723;28;20458;-75
2023/04/20 11:31:25;;;;;;;12.23;8.80;;;11.30;99.90;;;;;;5116103;28;20882;-75
2023/04/20 11:33:53;;;;;;;10.30;9.23;;;11.30;99.90;;;;;;5115910;28;20512;-74
2023/04/20 11:36:22;;;;;;;10.60;9.50;;;11.30;99.90;;;;;;5097387;28;20447;-75
2023/04/20 11:38:50;;;;;;;10.07;8.80;;;11.30;99.90;;;;;;5115543;28;20969;-75
2023/04/20 11:41:19;;;;;;;10.30;9.30;;;11.30;99.90;;;;;;5097559;28;20475;-75
2023/04/20 11:43:48;;;;;;;11.13;10.00;;;11.30;99.90;;;;;;5115441;28;20466;-74
2023/04/20 11:46:19;;;;;;;11.00;9.33;;;11.20;99.90;;;;;;5115661;28;20488;-75
2023/04/20 11:48:48;;;;;;;10.83;9.73;;;11.20;99.90;;;;;;5115873;28;20434;-75
2023/04/20 11:51:19;;;;;;;10.70;9.43;;;11.20;99.90;;;;;;5115505;28;20470;-74
2023/04/20 11:53:47;;;;;;;9.93;8.90;;;11.30;99.90;;;;;;5115389;28;20897;-74
2023/04/20 11:56:15;;;;;;;10.03;9.03;;;11.40;99.90;;;;;;5115642;28;20484;-74
2023/04/20 11:58:43;;;;;;;10.20;8.97;;;11.50;99.90;;;;;;5097017;28;20462;-74
2023/04/20 12:01:12;;;;;;;9.60;8.70;;;11.60;99.90;;;;;;5115057;28;20820;-74
2023/04/20 12:03:41;;;;;;;10.60;9.60;;;11.60;99.90;;;;;;5096669;28;20558;-74
2023/04/20 12:06:09;;;;;;;9.80;8.80;;;11.60;99.90;;;;;;5096686;28;20509;-74
2023/04/20 12:08:37;;;;;;;10.63;9.40;;;11.70;99.90;;;;;;5096758;28;20436;-74
2023/04/20 12:11:05;;;;;;;12.50;9.40;;;11.80;99.90;;;;;;5096631;28;20443;-74
2023/04/20 12:13:34;;;;;;;10.30;9.17;;;11.90;99.90;;;;;;5114801;28;20550;-74
2023/04/20 12:16:02;;;;;;;13.20;9.67;;;11.90;99.90;;;;;;5096693;28;20447;-74
2023/04/20 12:18:30;;;;;;;11.10;9.20;;;12.00;99.90;;;;;;5096372;28;20443;-74
2023/04/20 12:21:00;;;;;;;11.70;9.10;;;12.10;99.90;;;;;;5096658;28;20617;-74
2023/04/20 12:23:28;;;;;;;8.63;7.73;;;12.20;99.90;;;;;;5114470;28;20478;-74
2023/04/20 12:25:56;;;;;;;9.20;8.30;;;12.30;99.90;;;;;;5114475;28;20467;-75
2023/04/20 12:28:24;;;;;;;10.20;9.10;;;12.40;99.90;;;;;;5096194;28;20439;-74
2023/04/20 12:30:52;;;;;;;10.07;9.07;;;12.50;99.90;;;;;;5114477;28;20437;-74
2023/04/20 12:33:20;;;;;;;9.37;8.07;;;12.50;99.90;;;;;;5096132;28;20566;-74
2023/04/20 12:35:48;;;;;;;10.37;9.27;;;12.50;99.90;;;;;;5115043;28;20630;-74
2023/04/20 12:38:18;;;;;;;9.43;8.50;;;12.50;99.90;;;;;;5095943;28;20806;-74
2023/04/20 12:40:47;;;;;;;9.50;8.50;;;12.50;99.90;;;;;;5114231;28;20431;-74
2023/04/20 12:43:15;;;;;;;10.17;9.10;;;12.60;99.90;;;;;;5095864;28;21050;-74
2023/04/20 12:45:43;;;;;;;9.80;8.83;;;12.60;99.90;;;;;;5114221;28;20431;-74
2023/04/20 12:48:11;;;;;;;9.80;8.47;;;12.50;99.90;;;;;;5114128;28;20439;-74
2023/04/20 12:50:39;;;;;;;9.00;8.10;;;12.50;99.90;;;;;;5095228;28;20452;-74
2023/04/20 12:53:07;;;;;;;9.80;8.80;;;12.50;99.90;;;;;;5114325;28;20444;-75
2023/04/20 12:55:37;;;;;;;10.20;9.10;;;12.60;99.90;;;;;;5095770;28;20467;-75
2023/04/20 12:58:05;;;;;;;9.07;8.17;;;12.60;99.90;;;;;;5095685;28;20451;-75
2023/04/20 13:00:33;;;;;;;10.77;8.80;;;12.70;99.90;;;;;;5095593;28;20496;-75